sensor_id;sensor_type;location;lat;lon;timestamp;pressure;altitude;pressure_sealevel;temperature;humidity
72636;BME280;60679;48.888;15.544;2023-02-08T00:00:50;98344.06;;;-7.98;59.83
72636;BME280;60679;48.888;15.544;2023-02-08T00:03:16;98334.94;;;-7.88;60.08
72636;BME280;60679;48.888;15.544;2023-02-08T00:05:42;98343.34;;;-7.80;59.87
72636;BME280;60679;48.888;15.544;2023-02-08T00:08:08;98341.94;;;-7.67;60.27
72636;BME280;60679;48.888;15.544;2023-02-08T00:10:34;98346.47;;;-7.49;60.30
72636;BME280;60679;48.888;15.544;2023-02-08T00:13:01;98345.69;;;-7.31;60.01
72636;BME280;60679;48.888;15.544;2023-02-08T00:15:27;98343.34;;;-7.17;59.89
72636;BME280;60679;48.888;15.544;2023-02-08T00:17:52;98351.66;;;-7.06;60.02
72636;BME280;60679;48.888;15.544;2023-02-08T00:20:18;98346.06;;;-6.98;59.98
72636;BME280;60679;48.888;15.544;2023-02-08T00:22:43;98344.97;;;-6.92;59.86
72636;BME280;60679;48.888;15.544;2023-02-08T00:25:09;98346.38;;;-6.85;59.98
72636;BME280;60679;48.888;15.544;2023-02-08T00:27:35;98352.31;;;-6.80;60.03
72636;BME280;60679;48.888;15.544;2023-02-08T00:30:00;98350.34;;;-6.75;60.37
72636;BME280;60679;48.888;15.544;2023-02-08T00:32:26;98344.00;;;-6.71;60.36
72636;BME280;60679;48.888;15.544;2023-02-08T00:34:51;98338.59;;;-6.67;60.10
72636;BME280;60679;48.888;15.544;2023-02-08T00:37:16;98339.22;;;-6.62;60.38
72636;BME280;60679;48.888;15.544;2023-02-08T00:39:42;98340.72;;;-6.56;60.14
72636;BME280;60679;48.888;15.544;2023-02-08T00:42:08;98337.84;;;-6.50;60.23
72636;BME280;60679;48.888;15.544;2023-02-08T00:44:33;98339.47;;;-6.48;60.47
72636;BME280;60679;48.888;15.544;2023-02-08T00:46:59;98338.47;;;-6.45;60.32
72636;BME280;60679;48.888;15.544;2023-02-08T00:49:24;98338.41;;;-6.43;60.68
72636;BME280;60679;48.888;15.544;2023-02-08T00:51:52;98340.06;;;-6.41;60.53
72636;BME280;60679;48.888;15.544;2023-02-08T00:54:19;98342.53;;;-6.38;60.89
72636;BME280;60679;48.888;15.544;2023-02-08T00:56:46;98343.38;;;-6.37;60.90
72636;BME280;60679;48.888;15.544;2023-02-08T00:59:12;98350.44;;;-6.38;60.63
72636;BME280;60679;48.888;15.544;2023-02-08T01:01:38;98341.09;;;-6.45;60.83
72636;BME280;60679;48.888;15.544;2023-02-08T01:04:04;98338.09;;;-6.56;60.86
72636;BME280;60679;48.888;15.544;2023-02-08T01:06:31;98336.22;;;-6.73;61.03
72636;BME280;60679;48.888;15.544;2023-02-08T01:08:56;98337.84;;;-6.90;61.29
72636;BME280;60679;48.888;15.544;2023-02-08T01:11:23;98332.69;;;-7.12;61.26
72636;BME280;60679;48.888;15.544;2023-02-08T01:13:50;98334.38;;;-7.31;61.45
72636;BME280;60679;48.888;15.544;2023-02-08T01:16:25;98332.13;;;-7.40;61.33
72636;BME280;60679;48.888;15.544;2023-02-08T01:18:53;98327.25;;;-7.49;61.59
72636;BME280;60679;48.888;15.544;2023-02-08T01:21:24;98327.75;;;-7.62;61.65
72636;BME280;60679;48.888;15.544;2023-02-08T01:23:50;98335.91;;;-7.69;61.89
72636;BME280;60679;48.888;15.544;2023-02-08T01:26:17;98342.38;;;-7.78;61.79
72636;BME280;60679;48.888;15.544;2023-02-08T01:28:43;98335.63;;;-7.83;61.80
72636;BME280;60679;48.888;15.544;2023-02-08T01:31:13;98343.66;;;-7.88;61.84
72636;BME280;60679;48.888;15.544;2023-02-08T01:33:38;98344.03;;;-7.97;62.18
72636;BME280;60679;48.888;15.544;2023-02-08T01:36:05;98345.13;;;-8.02;61.83
72636;BME280;60679;48.888;15.544;2023-02-08T01:38:32;98344.56;;;-8.10;61.89
72636;BME280;60679;48.888;15.544;2023-02-08T01:40:57;98348.41;;;-8.21;61.92
72636;BME280;60679;48.888;15.544;2023-02-08T01:43:32;98347.97;;;-8.30;62.17
72636;BME280;60679;48.888;15.544;2023-02-08T01:45:58;98356.91;;;-8.36;62.39
72636;BME280;60679;48.888;15.544;2023-02-08T01:48:39;98344.91;;;-8.41;62.32
72636;BME280;60679;48.888;15.544;2023-02-08T01:51:09;98342.50;;;-8.47;62.31
72636;BME280;60679;48.888;15.544;2023-02-08T01:53:38;98347.94;;;-8.53;62.57
72636;BME280;60679;48.888;15.544;2023-02-08T01:56:10;98359.41;;;-8.56;62.69
72636;BME280;60679;48.888;15.544;2023-02-08T01:58:50;98357.78;;;-8.60;62.50
72636;BME280;60679;48.888;15.544;2023-02-08T02:01:17;98354.47;;;-8.65;62.66
72636;BME280;60679;48.888;15.544;2023-02-08T02:03:43;98350.22;;;-8.67;62.75
72636;BME280;60679;48.888;15.544;2023-02-08T02:06:17;98351.97;;;-8.68;62.64
72636;BME280;60679;48.888;15.544;2023-02-08T02:09:23;98354.03;;;-8.76;62.92
72636;BME280;60679;48.888;15.544;2023-02-08T02:11:47;98352.47;;;-8.82;62.58
72636;BME280;60679;48.888;15.544;2023-02-08T02:14:14;98355.94;;;-8.81;62.90
72636;BME280;60679;48.888;15.544;2023-02-08T02:16:40;98353.34;;;-8.81;62.80
72636;BME280;60679;48.888;15.544;2023-02-08T02:19:12;98351.78;;;-8.87;62.87
72636;BME280;60679;48.888;15.544;2023-02-08T02:22:01;98348.53;;;-8.93;62.86
72636;BME280;60679;48.888;15.544;2023-02-08T02:27:38;98347.16;;;-9.03;63.35
72636;BME280;60679;48.888;15.544;2023-02-08T02:33:08;98325.50;;;-9.08;63.17
72636;BME280;60679;48.888;15.544;2023-02-08T02:35:59;98326.44;;;-9.09;63.32
72636;BME280;60679;48.888;15.544;2023-02-08T02:44:15;98340.88;;;-9.24;63.35
72636;BME280;60679;48.888;15.544;2023-02-08T02:47:02;98333.19;;;-9.28;63.43
72636;BME280;60679;48.888;15.544;2023-02-08T02:49:53;98337.59;;;-9.30;63.35
72636;BME280;60679;48.888;15.544;2023-02-08T02:52:27;98342.94;;;-9.33;63.60
72636;BME280;60679;48.888;15.544;2023-02-08T02:55:02;98336.97;;;-9.37;63.39
72636;BME280;60679;48.888;15.544;2023-02-08T02:57:30;98343.09;;;-9.38;63.34
72636;BME280;60679;48.888;15.544;2023-02-08T02:59:57;98340.53;;;-9.40;63.71
72636;BME280;60679;48.888;15.544;2023-02-08T03:02:24;98341.47;;;-9.42;63.46
72636;BME280;60679;48.888;15.544;2023-02-08T03:04:53;98349.38;;;-9.44;63.76
72636;BME280;60679;48.888;15.544;2023-02-08T03:12:48;98340.03;;;-9.51;63.65
72636;BME280;60679;48.888;15.544;2023-02-08T03:15:28;98344.63;;;-9.57;63.79
72636;BME280;60679;48.888;15.544;2023-02-08T03:18:04;98345.59;;;-9.60;63.74
72636;BME280;60679;48.888;15.544;2023-02-08T03:20:57;98340.38;;;-9.61;63.74
72636;BME280;60679;48.888;15.544;2023-02-08T03:24:00;98342.13;;;-9.62;63.90
72636;BME280;60679;48.888;15.544;2023-02-08T03:32:16;98337.22;;;-9.71;64.21
72636;BME280;60679;48.888;15.544;2023-02-08T03:34:55;98342.28;;;-9.66;63.96
72636;BME280;60679;48.888;15.544;2023-02-08T03:37:47;98334.25;;;-9.60;64.12
72636;BME280;60679;48.888;15.544;2023-02-08T03:40:21;98327.47;;;-9.66;63.83
72636;BME280;60679;48.888;15.544;2023-02-08T03:42:49;98335.41;;;-9.69;63.93
72636;BME280;60679;48.888;15.544;2023-02-08T03:45:27;98336.38;;;-9.71;64.10
72636;BME280;60679;48.888;15.544;2023-02-08T03:47:56;98340.84;;;-9.75;64.25
72636;BME280;60679;48.888;15.544;2023-02-08T03:50:26;98337.53;;;-9.80;64.39
72636;BME280;60679;48.888;15.544;2023-02-08T03:52:54;98334.03;;;-9.80;64.23
72636;BME280;60679;48.888;15.544;2023-02-08T03:55:23;98333.97;;;-9.79;64.26
72636;BME280;60679;48.888;15.544;2023-02-08T03:58:15;98340.13;;;-9.80;64.25
72636;BME280;60679;48.888;15.544;2023-02-08T04:00:46;98335.00;;;-9.83;64.65
72636;BME280;60679;48.888;15.544;2023-02-08T04:03:25;98335.03;;;-9.84;64.52
72636;BME280;60679;48.888;15.544;2023-02-08T04:05:52;98346.44;;;-9.87;64.58
72636;BME280;60679;48.888;15.544;2023-02-08T04:08:18;98337.84;;;-9.90;64.53
72636;BME280;60679;48.888;15.544;2023-02-08T04:10:45;98341.41;;;-9.93;64.50
72636;BME280;60679;48.888;15.544;2023-02-08T04:13:11;98338.00;;;-9.95;64.51
72636;BME280;60679;48.888;15.544;2023-02-08T04:15:36;98334.63;;;-9.99;64.59
72636;BME280;60679;48.888;15.544;2023-02-08T04:18:02;98333.03;;;-10.04;64.75
72636;BME280;60679;48.888;15.544;2023-02-08T04:20:27;98337.53;;;-10.08;64.68
72636;BME280;60679;48.888;15.544;2023-02-08T04:22:53;98329.63;;;-10.06;64.78
72636;BME280;60679;48.888;15.544;2023-02-08T04:25:18;98333.03;;;-10.04;64.77
72636;BME280;60679;48.888;15.544;2023-02-08T04:27:44;98336.59;;;-10.05;64.83
72636;BME280;60679;48.888;15.544;2023-02-08T04:30:10;98338.38;;;-10.07;64.88
72636;BME280;60679;48.888;15.544;2023-02-08T04:32:36;98342.75;;;-10.08;64.62
72636;BME280;60679;48.888;15.544;2023-02-08T04:35:01;98341.06;;;-10.10;64.98
72636;BME280;60679;48.888;15.544;2023-02-08T04:37:29;98337.75;;;-10.14;64.64
72636;BME280;60679;48.888;15.544;2023-02-08T04:39:54;98342.06;;;-10.13;64.98
72636;BME280;60679;48.888;15.544;2023-02-08T04:42:20;98340.25;;;-10.11;65.20
72636;BME280;60679;48.888;15.544;2023-02-08T04:44:45;98335.84;;;-10.10;65.09
72636;BME280;60679;48.888;15.544;2023-02-08T04:47:10;98329.78;;;-10.11;65.00
72636;BME280;60679;48.888;15.544;2023-02-08T04:49:36;98342.13;;;-10.16;65.14
72636;BME280;60679;48.888;15.544;2023-02-08T04:52:01;98338.03;;;-10.23;65.15
72636;BME280;60679;48.888;15.544;2023-02-08T04:54:27;98338.19;;;-10.27;64.76
72636;BME280;60679;48.888;15.544;2023-02-08T04:56:55;98337.44;;;-10.32;65.13
72636;BME280;60679;48.888;15.544;2023-02-08T04:59:20;98336.72;;;-10.37;65.02
72636;BME280;60679;48.888;15.544;2023-02-08T05:01:46;98342.09;;;-10.42;65.16
72636;BME280;60679;48.888;15.544;2023-02-08T05:04:11;98334.25;;;-10.42;65.16
72636;BME280;60679;48.888;15.544;2023-02-08T05:06:36;98341.25;;;-10.44;65.34
72636;BME280;60679;48.888;15.544;2023-02-08T05:09:02;98350.97;;;-10.49;65.21
72636;BME280;60679;48.888;15.544;2023-02-08T05:11:30;98350.25;;;-10.54;65.26
72636;BME280;60679;48.888;15.544;2023-02-08T05:13:56;98346.94;;;-10.59;65.09
72636;BME280;60679;48.888;15.544;2023-02-08T05:16:21;98346.94;;;-10.59;65.39
72636;BME280;60679;48.888;15.544;2023-02-08T05:18:46;98348.59;;;-10.57;65.53
72636;BME280;60679;48.888;15.544;2023-02-08T05:21:12;98355.47;;;-10.54;65.26
72636;BME280;60679;48.888;15.544;2023-02-08T05:23:37;98356.34;;;-10.53;65.20
72636;BME280;60679;48.888;15.544;2023-02-08T05:26:07;98358.16;;;-10.55;65.57
72636;BME280;60679;48.888;15.544;2023-02-08T05:28:34;98372.09;;;-10.58;65.45
72636;BME280;60679;48.888;15.544;2023-02-08T05:31:20;98366.16;;;-10.63;65.44
72636;BME280;60679;48.888;15.544;2023-02-08T05:33:48;98368.75;;;-10.62;65.54
72636;BME280;60679;48.888;15.544;2023-02-08T05:36:16;98372.09;;;-10.57;65.47
72636;BME280;60679;48.888;15.544;2023-02-08T05:38:42;98382.28;;;-10.49;65.62
72636;BME280;60679;48.888;15.544;2023-02-08T05:41:08;98388.91;;;-10.36;65.79
72636;BME280;60679;48.888;15.544;2023-02-08T05:43:33;98376.28;;;-10.22;65.45
72636;BME280;60679;48.888;15.544;2023-02-08T05:45:59;98375.16;;;-10.13;65.88
72636;BME280;60679;48.888;15.544;2023-02-08T05:48:24;98380.06;;;-10.04;65.70
72636;BME280;60679;48.888;15.544;2023-02-08T05:50:50;98379.97;;;-10.01;65.63
72636;BME280;60679;48.888;15.544;2023-02-08T05:53:15;98380.59;;;-9.93;65.75
72636;BME280;60679;48.888;15.544;2023-02-08T05:55:45;98389.16;;;-9.88;65.80
72636;BME280;60679;48.888;15.544;2023-02-08T05:58:11;98386.44;;;-9.85;65.51
72636;BME280;60679;48.888;15.544;2023-02-08T06:00:37;98388.22;;;-9.87;65.29
72636;BME280;60679;48.888;15.544;2023-02-08T06:03:02;98385.72;;;-9.90;65.52
72636;BME280;60679;48.888;15.544;2023-02-08T06:05:28;98378.06;;;-9.96;65.64
72636;BME280;60679;48.888;15.544;2023-02-08T06:07:53;98377.44;;;-10.04;65.80
72636;BME280;60679;48.888;15.544;2023-02-08T06:10:19;98378.53;;;-10.11;65.42
72636;BME280;60679;48.888;15.544;2023-02-08T06:12:44;98376.22;;;-10.20;65.82
72636;BME280;60679;48.888;15.544;2023-02-08T06:15:10;98378.94;;;-10.23;65.78
72636;BME280;60679;48.888;15.544;2023-02-08T06:17:35;98383.28;;;-10.24;65.85
72636;BME280;60679;48.888;15.544;2023-02-08T06:20:00;98384.13;;;-10.22;65.96
72636;BME280;60679;48.888;15.544;2023-02-08T06:22:26;98384.13;;;-10.22;65.94
72636;BME280;60679;48.888;15.544;2023-02-08T06:24:51;98394.59;;;-10.23;65.77
72636;BME280;60679;48.888;15.544;2023-02-08T06:27:16;98397.22;;;-10.23;65.80
72636;BME280;60679;48.888;15.544;2023-02-08T06:29:42;98400.59;;;-10.20;65.83
72636;BME280;60679;48.888;15.544;2023-02-08T06:32:07;98405.66;;;-10.15;65.64
72636;BME280;60679;48.888;15.544;2023-02-08T06:34:32;98395.22;;;-10.15;65.79
72636;BME280;60679;48.888;15.544;2023-02-08T06:36:58;98399.44;;;-10.11;65.65
72636;BME280;60679;48.888;15.544;2023-02-08T06:39:27;98409.63;;;-10.02;65.56
72636;BME280;60679;48.888;15.544;2023-02-08T06:41:52;98406.69;;;-9.93;65.54
72636;BME280;60679;48.888;15.544;2023-02-08T06:44:18;98402.00;;;-9.82;65.49
72636;BME280;60679;48.888;15.544;2023-02-08T06:46:43;98412.25;;;-9.74;65.66
72636;BME280;60679;48.888;15.544;2023-02-08T06:49:09;98409.34;;;-9.65;65.34
72636;BME280;60679;48.888;15.544;2023-02-08T06:51:35;98422.09;;;-9.56;65.23
72636;BME280;60679;48.888;15.544;2023-02-08T06:54:00;98416.56;;;-9.46;65.27
72636;BME280;60679;48.888;15.544;2023-02-08T06:56:26;98414.19;;;-9.27;64.99
72636;BME280;60679;48.888;15.544;2023-02-08T06:58:51;98418.00;;;-9.11;65.01
72636;BME280;60679;48.888;15.544;2023-02-08T07:01:16;98412.06;;;-8.90;65.06
72636;BME280;60679;48.888;15.544;2023-02-08T07:03:41;98419.06;;;-8.65;65.03
72636;BME280;60679;48.888;15.544;2023-02-08T07:06:15;98419.22;;;-8.45;64.55
72636;BME280;60679;48.888;15.544;2023-02-08T07:08:40;98414.84;;;-8.22;64.53
72636;BME280;60679;48.888;15.544;2023-02-08T07:11:12;98426.91;;;-7.94;64.53
72636;BME280;60679;48.888;15.544;2023-02-08T07:13:38;98422.38;;;-7.68;64.68
72636;BME280;60679;48.888;15.544;2023-02-08T07:16:05;98410.75;;;-7.39;64.16
72636;BME280;60679;48.888;15.544;2023-02-08T07:18:31;98421.16;;;-7.16;63.90
72636;BME280;60679;48.888;15.544;2023-02-08T07:20:57;98416.16;;;-7.00;63.81
72636;BME280;60679;48.888;15.544;2023-02-08T07:23:23;98424.13;;;-6.81;63.94
72636;BME280;60679;48.888;15.544;2023-02-08T07:26:07;98418.75;;;-6.58;63.85
72636;BME280;60679;48.888;15.544;2023-02-08T07:28:33;98416.53;;;-6.28;63.43
72636;BME280;60679;48.888;15.544;2023-02-08T07:30:58;98408.78;;;-5.93;63.33
72636;BME280;60679;48.888;15.544;2023-02-08T07:33:24;98415.97;;;-5.59;62.65
72636;BME280;60679;48.888;15.544;2023-02-08T07:35:50;98415.25;;;-5.27;62.69
72636;BME280;60679;48.888;15.544;2023-02-08T07:38:15;98423.16;;;-4.91;62.13
72636;BME280;60679;48.888;15.544;2023-02-08T07:40:44;98415.66;;;-4.47;62.11
72636;BME280;60679;48.888;15.544;2023-02-08T07:43:09;98421.50;;;-4.07;61.20
72636;BME280;60679;48.888;15.544;2023-02-08T07:45:37;98423.09;;;-3.72;61.11
72636;BME280;60679;48.888;15.544;2023-02-08T07:48:04;98419.56;;;-3.40;61.08
72636;BME280;60679;48.888;15.544;2023-02-08T07:50:29;98417.59;;;-3.05;60.52
72636;BME280;60679;48.888;15.544;2023-02-08T07:52:54;98418.69;;;-2.64;60.19
72636;BME280;60679;48.888;15.544;2023-02-08T07:55:20;98413.41;;;-2.20;59.44
72636;BME280;60679;48.888;15.544;2023-02-08T07:57:47;98405.41;;;-1.76;58.94
72636;BME280;60679;48.888;15.544;2023-02-08T08:00:14;98414.94;;;-1.31;58.44
72636;BME280;60679;48.888;15.544;2023-02-08T08:02:40;98420.66;;;-0.84;57.94
72636;BME280;60679;48.888;15.544;2023-02-08T08:05:09;98420.78;;;-0.46;57.68
72636;BME280;60679;48.888;15.544;2023-02-08T08:07:35;98408.31;;;-0.06;57.27
72636;BME280;60679;48.888;15.544;2023-02-08T08:10:01;98406.63;;;0.31;56.81
72636;BME280;60679;48.888;15.544;2023-02-08T08:12:26;98404.75;;;0.69;56.56
72636;BME280;60679;48.888;15.544;2023-02-08T08:14:52;98401.75;;;1.10;55.93
72636;BME280;60679;48.888;15.544;2023-02-08T08:17:18;98391.94;;;1.58;55.79
72636;BME280;60679;48.888;15.544;2023-02-08T08:19:43;98397.72;;;1.98;54.99
72636;BME280;60679;48.888;15.544;2023-02-08T08:22:09;98394.50;;;2.39;54.53
72636;BME280;60679;48.888;15.544;2023-02-08T08:24:34;98395.47;;;2.49;54.60
72636;BME280;60679;48.888;15.544;2023-02-08T08:27:01;98399.22;;;2.90;53.98
72636;BME280;60679;48.888;15.544;2023-02-08T08:29:27;98402.59;;;3.04;53.75
72636;BME280;60679;48.888;15.544;2023-02-08T08:31:52;98398.94;;;3.47;53.27
72636;BME280;60679;48.888;15.544;2023-02-08T08:34:18;98403.91;;;3.84;53.03
72636;BME280;60679;48.888;15.544;2023-02-08T08:36:43;98406.19;;;4.09;52.92
72636;BME280;60679;48.888;15.544;2023-02-08T08:39:09;98413.97;;;4.42;52.50
72636;BME280;60679;48.888;15.544;2023-02-08T08:41:34;98415.03;;;4.09;52.85
72636;BME280;60679;48.888;15.544;2023-02-08T08:44:01;98414.44;;;4.47;52.13
72636;BME280;60679;48.888;15.544;2023-02-08T08:46:27;98412.47;;;4.80;51.71
72636;BME280;60679;48.888;15.544;2023-02-08T08:48:52;98417.94;;;5.18;51.44
72636;BME280;60679;48.888;15.544;2023-02-08T08:51:17;98424.94;;;5.78;50.86
72636;BME280;60679;48.888;15.544;2023-02-08T08:53:43;98420.56;;;6.34;50.49
72636;BME280;60679;48.888;15.544;2023-02-08T08:56:08;98416.91;;;6.72;50.27
72636;BME280;60679;48.888;15.544;2023-02-08T08:58:34;98422.06;;;7.20;49.64
72636;BME280;60679;48.888;15.544;2023-02-08T09:00:59;98432.53;;;7.50;49.07
72636;BME280;60679;48.888;15.544;2023-02-08T09:03:26;98415.84;;;7.82;48.62
72636;BME280;60679;48.888;15.544;2023-02-08T09:05:52;98415.47;;;8.30;48.19
72636;BME280;60679;48.888;15.544;2023-02-08T09:08:18;98418.94;;;8.66;47.64
72636;BME280;60679;48.888;15.544;2023-02-08T09:10:43;98424.91;;;9.11;47.16
72636;BME280;60679;48.888;15.544;2023-02-08T09:13:09;98425.59;;;9.63;46.82
72636;BME280;60679;48.888;15.544;2023-02-08T09:15:39;98423.81;;;10.04;46.03
72636;BME280;60679;48.888;15.544;2023-02-08T09:18:05;98423.81;;;10.04;45.90
72636;BME280;60679;48.888;15.544;2023-02-08T09:20:30;98414.41;;;10.49;45.22
72636;BME280;60679;48.888;15.544;2023-02-08T09:22:56;98415.69;;;10.85;44.77
72636;BME280;60679;48.888;15.544;2023-02-08T09:25:21;98412.94;;;11.09;44.43
72636;BME280;60679;48.888;15.544;2023-02-08T09:27:47;98421.22;;;11.46;43.84
72636;BME280;60679;48.888;15.544;2023-02-08T09:30:13;98413.94;;;11.86;43.30
72636;BME280;60679;48.888;15.544;2023-02-08T09:32:39;98405.28;;;12.50;42.67
72636;BME280;60679;48.888;15.544;2023-02-08T09:35:05;98409.16;;;13.08;41.85
72636;BME280;60679;48.888;15.544;2023-02-08T09:37:31;98411.81;;;13.66;41.43
72636;BME280;60679;48.888;15.544;2023-02-08T09:39:56;98412.59;;;14.17;40.91
72636;BME280;60679;48.888;15.544;2023-02-08T09:42:43;98414.91;;;14.56;40.35
72636;BME280;60679;48.888;15.544;2023-02-08T09:48:01;98421.94;;;15.34;39.27
72636;BME280;60679;48.888;15.544;2023-02-08T09:50:52;98429.91;;;15.70;39.04
72636;BME280;60679;48.888;15.544;2023-02-08T09:56:02;98430.34;;;16.47;37.98
72636;BME280;60679;48.888;15.544;2023-02-08T09:58:42;98420.75;;;16.70;37.60
72636;BME280;60679;48.888;15.544;2023-02-08T10:01:21;98418.59;;;17.25;37.32
72636;BME280;60679;48.888;15.544;2023-02-08T10:03:51;98420.19;;;17.72;36.70
72636;BME280;60679;48.888;15.544;2023-02-08T10:06:18;98416.09;;;17.94;36.58
72636;BME280;60679;48.888;15.544;2023-02-08T10:08:47;98403.78;;;18.16;36.23
72636;BME280;60679;48.888;15.544;2023-02-08T10:11:29;98404.00;;;18.46;35.79
72636;BME280;60679;48.888;15.544;2023-02-08T10:14:20;98404.75;;;18.91;35.61
72636;BME280;60679;48.888;15.544;2023-02-08T10:27:50;98402.16;;;20.94;33.75
72636;BME280;60679;48.888;15.544;2023-02-08T10:30:35;98395.84;;;21.05;33.57
72636;BME280;60679;48.888;15.544;2023-02-08T10:33:11;98388.72;;;21.27;32.91
72636;BME280;60679;48.888;15.544;2023-02-08T10:35:44;98397.53;;;21.64;32.85
72636;BME280;60679;48.888;15.544;2023-02-08T10:40:42;98392.22;;;22.26;32.51
72636;BME280;60679;48.888;15.544;2023-02-08T10:43:31;98396.75;;;22.77;31.85
72636;BME280;60679;48.888;15.544;2023-02-08T10:51:32;98392.94;;;20.65;32.82
72636;BME280;60679;48.888;15.544;2023-02-08T10:53:58;98388.44;;;21.06;32.48
72636;BME280;60679;48.888;15.544;2023-02-08T10:56:39;98387.72;;;22.08;31.18
72636;BME280;60679;48.888;15.544;2023-02-08T10:59:44;98382.06;;;22.71;30.02
72636;BME280;60679;48.888;15.544;2023-02-08T11:02:22;98375.56;;;22.94;30.07
72636;BME280;60679;48.888;15.544;2023-02-08T11:05:33;98379.78;;;22.23;30.49
72636;BME280;60679;48.888;15.544;2023-02-08T11:08:13;98374.06;;;23.03;29.79
72636;BME280;60679;48.888;15.544;2023-02-08T11:11:07;98377.84;;;23.52;29.11
72636;BME280;60679;48.888;15.544;2023-02-08T11:13:42;98372.88;;;24.14;28.67
72636;BME280;60679;48.888;15.544;2023-02-08T11:16:19;98372.50;;;24.59;28.09
72636;BME280;60679;48.888;15.544;2023-02-08T11:18:53;98365.06;;;24.86;27.95
72636;BME280;60679;48.888;15.544;2023-02-08T11:21:32;98363.22;;;25.34;27.53
72636;BME280;60679;48.888;15.544;2023-02-08T11:24:00;98357.94;;;25.32;27.24
72636;BME280;60679;48.888;15.544;2023-02-08T11:31:24;98349.41;;;25.39;26.33
72636;BME280;60679;48.888;15.544;2023-02-08T11:34:01;98349.44;;;25.07;26.58
72636;BME280;60679;48.888;15.544;2023-02-08T11:36:28;98351.84;;;25.35;26.42
72636;BME280;60679;48.888;15.544;2023-02-08T11:38:56;98350.97;;;25.66;26.15
72636;BME280;60679;48.888;15.544;2023-02-08T11:41:22;98350.66;;;24.84;26.97
72636;BME280;60679;48.888;15.544;2023-02-08T11:46:24;98356.69;;;21.21;28.90
72636;BME280;60679;48.888;15.544;2023-02-08T11:48:51;98355.19;;;22.33;27.63
72636;BME280;60679;48.888;15.544;2023-02-08T11:51:36;98343.41;;;21.42;28.45
72636;BME280;60679;48.888;15.544;2023-02-08T11:54:03;98343.69;;;20.41;28.41
72636;BME280;60679;48.888;15.544;2023-02-08T11:56:31;98347.69;;;19.97;29.26
72636;BME280;60679;48.888;15.544;2023-02-08T12:01:38;98331.41;;;20.43;27.80
72636;BME280;60679;48.888;15.544;2023-02-08T12:04:10;98326.16;;;22.42;25.95
72636;BME280;60679;48.888;15.544;2023-02-08T12:17:55;98315.91;;;23.43;24.02
72636;BME280;60679;48.888;15.544;2023-02-08T12:28:51;98315.97;;;15.93;30.14
72636;BME280;60679;48.888;15.544;2023-02-08T12:34:25;98329.06;;;12.83;32.35
72636;BME280;60679;48.888;15.544;2023-02-08T12:40:19;98313.28;;;18.49;26.07
72636;BME280;60679;48.888;15.544;2023-02-08T12:46:15;98296.31;;;23.61;22.75
72636;BME280;60679;48.888;15.544;2023-02-08T12:48:50;98289.16;;;23.87;23.12
72636;BME280;60679;48.888;15.544;2023-02-08T12:53:58;98296.06;;;23.24;22.62
72636;BME280;60679;48.888;15.544;2023-02-08T12:56:34;98293.44;;;23.99;22.48
72636;BME280;60679;48.888;15.544;2023-02-08T12:59:00;98292.41;;;24.64;21.99
72636;BME280;60679;48.888;15.544;2023-02-08T13:01:56;98289.13;;;24.99;21.66
72636;BME280;60679;48.888;15.544;2023-02-08T13:04:31;98279.19;;;25.03;21.69
72636;BME280;60679;48.888;15.544;2023-02-08T13:07:22;98281.47;;;25.11;21.62
72636;BME280;60679;48.888;15.544;2023-02-08T13:10:03;98289.75;;;25.63;21.49
72636;BME280;60679;48.888;15.544;2023-02-08T13:12:50;98278.31;;;25.44;21.46
72636;BME280;60679;48.888;15.544;2023-02-08T13:15:30;98272.84;;;25.02;21.39
72636;BME280;60679;48.888;15.544;2023-02-08T13:20:50;98266.72;;;21.57;23.11
72636;BME280;60679;48.888;15.544;2023-02-08T13:23:29;98273.59;;;22.94;22.42
72636;BME280;60679;48.888;15.544;2023-02-08T13:25:59;98275.50;;;24.02;21.84
72636;BME280;60679;48.888;15.544;2023-02-08T13:28:26;98267.75;;;25.31;21.28
72636;BME280;60679;48.888;15.544;2023-02-08T13:31:03;98266.69;;;26.14;20.55
72636;BME280;60679;48.888;15.544;2023-02-08T13:36:17;98270.31;;;24.05;21.11
72636;BME280;60679;48.888;15.544;2023-02-08T13:38:46;98268.53;;;23.68;21.01
72636;BME280;60679;48.888;15.544;2023-02-08T13:41:17;98279.53;;;23.24;21.53
72636;BME280;60679;48.888;15.544;2023-02-08T13:44:18;98271.19;;;22.64;21.58
72636;BME280;60679;48.888;15.544;2023-02-08T13:46:47;98265.31;;;22.44;21.83
72636;BME280;60679;48.888;15.544;2023-02-08T13:58:00;98265.66;;;22.14;22.00
72636;BME280;60679;48.888;15.544;2023-02-08T14:00:32;98261.91;;;22.20;21.63
72636;BME280;60679;48.888;15.544;2023-02-08T14:16:26;98267.94;;;20.51;22.72
72636;BME280;60679;48.888;15.544;2023-02-08T14:18:55;98267.59;;;20.06;22.63
72636;BME280;60679;48.888;15.544;2023-02-08T14:24:03;98265.25;;;13.30;28.64
72636;BME280;60679;48.888;15.544;2023-02-08T14:26:29;98275.56;;;9.86;31.56
72636;BME280;60679;48.888;15.544;2023-02-08T14:28:58;98280.22;;;8.10;32.92
72636;BME280;60679;48.888;15.544;2023-02-08T14:31:54;98290.78;;;6.90;33.62
72636;BME280;60679;48.888;15.544;2023-02-08T14:34:37;98290.63;;;6.00;34.16
72636;BME280;60679;48.888;15.544;2023-02-08T14:39:35;98276.78;;;4.61;35.51
72636;BME280;60679;48.888;15.544;2023-02-08T14:42:52;98281.94;;;4.03;35.76
72636;BME280;60679;48.888;15.544;2023-02-08T14:47:56;98284.06;;;3.38;36.66
72636;BME280;60679;48.888;15.544;2023-02-08T14:50:25;98282.97;;;3.09;36.77
72636;BME280;60679;48.888;15.544;2023-02-08T14:52:57;98286.59;;;2.76;37.26
72636;BME280;60679;48.888;15.544;2023-02-08T14:55:26;98282.50;;;2.61;37.45
72636;BME280;60679;48.888;15.544;2023-02-08T14:57:55;98291.03;;;2.44;37.77
72636;BME280;60679;48.888;15.544;2023-02-08T15:00:41;98287.53;;;2.32;38.06
72636;BME280;60679;48.888;15.544;2023-02-08T15:03:16;98288.75;;;2.28;38.05
72636;BME280;60679;48.888;15.544;2023-02-08T15:08:24;98288.88;;;1.93;38.58
72636;BME280;60679;48.888;15.544;2023-02-08T15:10:51;98297.56;;;1.73;38.93
72636;BME280;60679;48.888;15.544;2023-02-08T15:13:19;98294.66;;;1.76;39.05